Eagle, Idaho
Current Conditions -  °F | °C
As of 5:53 PM on Monday 22 Dec 2014 (Local Time) from KBOI Reporting Station
Scattered Clouds Scattered Clouds  
Wind Chill: 34°   Ceiling: Unl
Heat Index: 41°   Visibility: 10mi
Dew Point: 30°   Wind: 12mph
Humidity: 65%   Direction: 320°NW
Pressure: 30.26"   Gusts: NA
Location:  43.7°N, 116.35°W
Report Text: KBOI 230053Z 32010KT 10SM SCT070 05/M01 A3026 RMK AO2 SLP256 T00501011
Loading
Personal Weather Stations






























Interactive Weather Map New forecast layout! Learn more

10-Day Weather Forecast

Advertisements
Track Severe Weather on mobile